createdAt,value
2022-09-14T00:01:35.451Z,951.46
2022-09-14T00:04:01.734Z,951.47
2022-09-14T00:06:28.090Z,951.44
2022-09-14T00:08:54.426Z,951.39
2022-09-14T00:11:20.799Z,951.44
2022-09-14T00:13:47.167Z,951.37
2022-09-14T00:16:13.516Z,951.36
2022-09-14T00:18:39.820Z,951.37
2022-09-14T00:21:06.171Z,951.37
2022-09-14T00:23:32.511Z,951.44
2022-09-14T00:25:58.896Z,951.54
2022-09-14T00:28:25.231Z,951.44
2022-09-14T00:30:51.556Z,951.44
2022-09-14T00:33:17.905Z,951.38
2022-09-14T00:35:44.252Z,951.40
2022-09-14T00:38:10.591Z,951.44
2022-09-14T00:40:36.914Z,951.41
2022-09-14T00:43:03.263Z,951.46
2022-09-14T00:45:29.683Z,951.43
2022-09-14T00:47:55.969Z,951.59
2022-09-14T00:50:22.295Z,951.53
2022-09-14T00:52:48.648Z,951.55
2022-09-14T00:55:14.995Z,951.58
2022-09-14T00:57:41.321Z,951.59
2022-09-14T01:00:07.685Z,951.57
2022-09-14T01:02:34.042Z,951.59
2022-09-14T01:05:00.351Z,951.53
2022-09-14T01:07:26.694Z,951.59
2022-09-14T01:09:53.022Z,951.55
2022-09-14T01:12:19.371Z,951.55
2022-09-14T01:14:45.698Z,951.50
2022-09-14T01:17:12.082Z,951.58
2022-09-14T01:19:38.401Z,951.60
2022-09-14T01:22:04.723Z,951.58
2022-09-14T01:24:31.057Z,951.61
2022-09-14T01:26:57.375Z,951.61
2022-09-14T01:29:23.702Z,951.49
2022-09-14T01:31:50.115Z,951.50
2022-09-14T01:34:16.405Z,951.54
2022-09-14T01:36:42.722Z,951.52
2022-09-14T01:39:09.062Z,951.48
2022-09-14T01:41:35.411Z,951.50
2022-09-14T01:44:01.740Z,951.49
2022-09-14T01:46:28.117Z,951.57
2022-09-14T01:48:54.562Z,951.55
2022-09-14T01:51:20.870Z,951.60
2022-09-14T01:53:47.238Z,951.64
2022-09-14T01:56:13.561Z,951.63
2022-09-14T01:58:39.886Z,951.60
2022-09-14T02:01:06.280Z,951.53
2022-09-14T02:03:32.591Z,951.56
2022-09-14T02:05:58.964Z,951.46
2022-09-14T02:08:25.312Z,951.55
2022-09-14T02:10:51.625Z,951.51
2022-09-14T02:13:18.005Z,951.48
2022-09-14T02:15:44.370Z,951.51
2022-09-14T02:18:10.720Z,951.60
2022-09-14T02:20:37.051Z,951.60
2022-09-14T02:23:03.401Z,951.54
2022-09-14T02:25:29.748Z,951.53
2022-09-14T02:27:56.069Z,951.50
2022-09-14T02:30:22.428Z,951.47
2022-09-14T02:32:48.758Z,951.53
2022-09-14T02:35:15.098Z,951.52
2022-09-14T02:37:41.434Z,951.56
2022-09-14T02:40:07.820Z,951.54
2022-09-14T02:42:34.107Z,951.55
2022-09-14T02:45:00.447Z,951.57
2022-09-14T02:47:26.771Z,951.57
2022-09-14T02:49:53.108Z,951.55
2022-09-14T02:52:19.464Z,951.60
2022-09-14T02:54:45.805Z,951.68
2022-09-14T02:57:12.127Z,951.63
2022-09-14T02:59:38.492Z,951.59
2022-09-14T03:02:04.870Z,951.62
2022-09-14T03:04:31.139Z,951.58
2022-09-14T03:06:57.504Z,951.66
2022-09-14T03:09:23.824Z,951.66
2022-09-14T03:11:50.165Z,951.63
2022-09-14T03:14:16.529Z,951.62
2022-09-14T03:16:42.867Z,951.56
2022-09-14T03:19:09.208Z,951.54
2022-09-14T03:21:35.534Z,951.61
2022-09-14T03:24:01.882Z,951.65
2022-09-14T03:26:28.204Z,951.59
2022-09-14T03:28:54.529Z,951.59
2022-09-14T03:31:20.955Z,951.64
2022-09-14T03:33:47.262Z,951.59
2022-09-14T03:36:13.561Z,951.58
2022-09-14T03:38:39.898Z,951.63
2022-09-14T03:41:06.239Z,951.58
2022-09-14T03:43:32.582Z,951.60
2022-09-14T03:45:58.901Z,951.55
2022-09-14T03:48:25.226Z,951.61
2022-09-14T03:50:51.553Z,951.62
2022-09-14T03:53:17.903Z,951.62
2022-09-14T03:55:44.232Z,951.67
2022-09-14T03:58:10.583Z,951.61
2022-09-14T04:00:36.905Z,951.70
2022-09-14T04:03:03.340Z,951.66
2022-09-14T04:05:29.603Z,951.68
2022-09-14T04:07:55.986Z,951.75
2022-09-14T04:10:22.264Z,951.73
2022-09-14T04:12:48.634Z,951.71
2022-09-14T04:15:14.996Z,951.72
2022-09-14T04:17:41.323Z,951.67
2022-09-14T04:20:07.750Z,951.66
2022-09-14T04:22:34.015Z,951.64
2022-09-14T04:25:00.361Z,951.65
2022-09-14T04:27:26.742Z,951.70
2022-09-14T04:29:53.052Z,951.71
2022-09-14T04:32:19.436Z,951.68
2022-09-14T04:34:45.761Z,951.63
2022-09-14T04:37:12.109Z,951.68
2022-09-14T04:39:38.451Z,951.69
2022-09-14T04:42:04.767Z,951.75
2022-09-14T04:44:31.108Z,951.80
2022-09-14T04:46:57.507Z,951.84
2022-09-14T04:49:23.803Z,951.78
2022-09-14T04:51:50.152Z,951.84
2022-09-14T04:54:16.468Z,951.79
2022-09-14T04:56:42.849Z,951.95
2022-09-14T04:59:09.184Z,951.93
2022-09-14T05:01:35.539Z,951.99
2022-09-14T05:04:01.844Z,951.97
2022-09-14T05:06:28.165Z,952.01
2022-09-14T05:08:54.486Z,952.08
2022-09-14T05:11:20.819Z,952.04
2022-09-14T05:13:49.971Z,952.01
2022-09-14T05:16:13.507Z,952.02
2022-09-14T05:18:39.854Z,952.08
2022-09-14T05:21:08.385Z,952.14
2022-09-14T05:23:32.470Z,952.11
2022-09-14T05:25:58.832Z,952.14
2022-09-14T05:28:25.166Z,952.20
2022-09-14T05:30:51.545Z,952.20
2022-09-14T05:33:17.854Z,952.18
2022-09-14T05:35:44.238Z,952.25
2022-09-14T05:38:10.543Z,952.20
2022-09-14T05:40:36.866Z,952.21
2022-09-14T05:43:03.191Z,952.21
2022-09-14T05:45:29.534Z,952.25
2022-09-14T05:47:55.879Z,952.26
2022-09-14T05:50:22.221Z,952.27
2022-09-14T05:52:48.534Z,952.36
2022-09-14T05:55:14.891Z,952.43
2022-09-14T05:57:41.208Z,952.42
2022-09-14T06:00:07.535Z,952.34
2022-09-14T06:02:33.913Z,952.33
2022-09-14T06:05:00.349Z,952.35
2022-09-14T06:07:26.590Z,952.27
2022-09-14T06:09:52.967Z,952.34
2022-09-14T06:12:19.305Z,952.36
2022-09-14T06:14:45.662Z,952.24
2022-09-14T06:17:11.968Z,952.26
2022-09-14T06:19:38.289Z,952.35
2022-09-14T06:22:04.629Z,952.29
2022-09-14T06:24:30.977Z,952.29
2022-09-14T06:26:57.309Z,952.26
2022-09-14T06:29:23.635Z,952.32
2022-09-14T06:31:49.975Z,952.32
2022-09-14T06:34:16.303Z,952.25
2022-09-14T06:36:42.639Z,952.21
2022-09-14T06:39:09.013Z,952.15
2022-09-14T06:41:35.351Z,952.26
2022-09-14T06:44:01.737Z,952.27
2022-09-14T06:46:27.990Z,952.21
2022-09-14T06:48:54.312Z,952.25
2022-09-14T06:51:20.654Z,952.31
2022-09-14T06:53:46.989Z,952.31
2022-09-14T06:56:13.310Z,952.36
2022-09-14T06:58:39.634Z,952.30
2022-09-14T07:01:05.972Z,952.26
2022-09-14T07:03:32.297Z,952.36
2022-09-14T07:05:58.655Z,952.33
2022-09-14T07:08:24.974Z,952.29
2022-09-14T07:10:51.336Z,952.30
2022-09-14T07:13:17.674Z,952.23
2022-09-14T07:15:43.992Z,952.18
2022-09-14T07:18:10.319Z,952.17
2022-09-14T07:20:36.684Z,952.18
2022-09-14T07:23:03.050Z,952.25
2022-09-14T07:25:29.404Z,952.21
2022-09-14T07:27:55.779Z,952.20
2022-09-14T07:30:22.193Z,952.16
2022-09-14T07:32:48.455Z,952.16
2022-09-14T07:35:14.826Z,952.08
2022-09-14T07:37:41.149Z,952.07
2022-09-14T07:40:07.534Z,952.01
2022-09-14T07:42:33.844Z,952.11
2022-09-14T07:45:00.155Z,952.15
2022-09-14T07:47:26.481Z,952.14
2022-09-14T07:49:52.864Z,952.18
2022-09-14T07:52:19.201Z,952.16
2022-09-14T07:54:45.517Z,952.19
2022-09-14T07:57:11.877Z,952.20
2022-09-14T07:59:38.226Z,952.17
2022-09-14T08:02:04.585Z,952.16
2022-09-14T08:04:30.872Z,952.16
2022-09-14T08:06:57.197Z,952.24
2022-09-14T08:09:23.515Z,952.16
2022-09-14T08:11:49.864Z,952.23
2022-09-14T08:14:16.181Z,952.16
2022-09-14T08:16:42.576Z,952.12
2022-09-14T08:19:08.881Z,952.10
2022-09-14T08:21:35.208Z,952.10
2022-09-14T08:24:01.548Z,952.02
2022-09-14T08:26:27.890Z,952.03
2022-09-14T08:28:54.625Z,951.98
2022-09-14T08:31:21.081Z,952.06
2022-09-14T08:33:47.324Z,952.03
2022-09-14T08:36:13.644Z,952.06
2022-09-14T08:38:39.962Z,952.06
2022-09-14T08:41:06.285Z,952.02
2022-09-14T08:43:32.627Z,952.07
2022-09-14T08:45:59.057Z,952.02
2022-09-14T08:48:25.328Z,952.00
2022-09-14T08:50:51.649Z,951.95
2022-09-14T08:53:17.986Z,951.93
2022-09-14T08:55:44.329Z,951.93
2022-09-14T08:58:10.647Z,951.95
2022-09-14T09:00:37.063Z,951.93
2022-09-14T09:03:03.327Z,951.88
2022-09-14T09:05:29.648Z,951.94
2022-09-14T09:07:55.991Z,951.95
2022-09-14T09:10:22.316Z,951.85
2022-09-14T09:12:48.652Z,951.86
2022-09-14T09:15:14.982Z,951.91
2022-09-14T09:17:41.300Z,951.80
2022-09-14T09:20:07.646Z,951.77
2022-09-14T09:22:33.999Z,951.82
2022-09-14T09:25:00.343Z,951.77
2022-09-14T09:27:26.691Z,951.75
2022-09-14T09:29:53.014Z,951.73
2022-09-14T09:32:19.337Z,951.72
2022-09-14T09:34:45.715Z,951.73
2022-09-14T09:37:12.051Z,951.75
2022-09-14T09:39:38.394Z,951.72
2022-09-14T09:42:04.754Z,951.72
2022-09-14T09:44:31.075Z,951.69
2022-09-14T09:46:57.420Z,951.69
2022-09-14T09:49:23.717Z,951.66
2022-09-14T09:51:50.080Z,951.60
2022-09-14T09:54:16.421Z,951.58
2022-09-14T09:56:42.742Z,951.53
2022-09-14T09:59:09.087Z,951.56
2022-09-14T10:01:35.628Z,951.53
2022-09-14T10:04:01.766Z,951.42
2022-09-14T10:06:28.121Z,951.47
2022-09-14T10:08:54.460Z,951.42
2022-09-14T10:11:20.802Z,951.38
2022-09-14T10:13:47.145Z,951.32
2022-09-14T10:16:13.503Z,951.23
2022-09-14T10:18:39.857Z,951.21
2022-09-14T10:21:06.169Z,951.18
2022-09-14T10:23:32.486Z,951.15
2022-09-14T10:25:58.827Z,951.17
2022-09-14T10:28:25.172Z,951.14
2022-09-14T10:30:51.578Z,951.14
2022-09-14T10:33:17.843Z,951.23
2022-09-14T10:35:44.183Z,951.17
2022-09-14T10:38:10.532Z,951.08
2022-09-14T10:40:36.839Z,951.01
2022-09-14T10:43:03.214Z,951.04
2022-09-14T10:45:29.545Z,951.03
2022-09-14T10:47:55.866Z,950.98
2022-09-14T10:50:22.224Z,950.97
2022-09-14T10:52:48.569Z,950.89
2022-09-14T10:55:14.908Z,950.95
2022-09-14T10:57:41.259Z,950.92
2022-09-14T11:00:07.579Z,950.89
2022-09-14T11:02:34.037Z,950.85
2022-09-14T11:05:00.278Z,950.80
2022-09-14T11:07:26.594Z,950.86
2022-09-14T11:09:52.918Z,950.88
2022-09-14T11:12:19.275Z,950.82
2022-09-14T11:14:45.614Z,950.78
2022-09-14T11:17:11.940Z,950.76
2022-09-14T11:19:38.259Z,950.74
2022-09-14T11:22:04.621Z,950.80
2022-09-14T11:24:30.942Z,950.78
2022-09-14T11:26:57.301Z,950.81
2022-09-14T11:29:23.650Z,950.67
2022-09-14T11:32:10.100Z,950.66
2022-09-14T11:34:16.290Z,950.68
2022-09-14T11:36:42.664Z,950.50
2022-09-14T11:39:09.040Z,950.52
2022-09-14T11:41:35.381Z,950.39
2022-09-14T11:44:01.747Z,950.43
2022-09-14T11:46:28.165Z,950.34
2022-09-14T11:48:54.591Z,950.37
2022-09-14T11:51:20.749Z,950.34
2022-09-14T11:53:47.092Z,950.32
2022-09-14T11:56:13.413Z,950.35
2022-09-14T11:58:39.839Z,950.42
2022-09-14T12:01:06.160Z,950.31
2022-09-14T12:03:32.507Z,950.29
2022-09-14T12:05:58.840Z,950.33
2022-09-14T12:08:25.154Z,950.37
2022-09-14T12:10:51.539Z,950.30
2022-09-14T12:13:18.086Z,950.29
2022-09-14T12:15:44.466Z,950.30
2022-09-14T12:18:10.746Z,950.33
2022-09-14T12:20:37.095Z,950.37
2022-09-14T12:23:03.432Z,950.22
2022-09-14T12:25:29.774Z,950.25
2022-09-14T12:27:56.120Z,950.23
2022-09-14T12:30:22.494Z,950.22
2022-09-14T12:32:48.833Z,950.21
2022-09-14T12:35:15.147Z,950.24
2022-09-14T12:37:41.493Z,950.23
2022-09-14T12:40:07.930Z,950.18
2022-09-14T12:42:34.206Z,950.14
2022-09-14T12:45:00.548Z,950.15
2022-09-14T12:47:26.867Z,950.13
2022-09-14T12:49:53.242Z,950.15
2022-09-14T12:52:19.582Z,950.13
2022-09-14T12:54:50.569Z,950.10
2022-09-14T12:57:12.238Z,950.13
2022-09-14T12:59:38.585Z,950.14
2022-09-14T13:02:05.069Z,950.26
2022-09-14T13:04:31.266Z,950.17
2022-09-14T13:06:57.583Z,950.20
2022-09-14T13:09:23.935Z,950.18
2022-09-14T13:11:50.275Z,950.20
2022-09-14T13:14:16.618Z,950.17
2022-09-14T13:16:42.990Z,950.29
2022-09-14T13:19:13.028Z,950.28
2022-09-14T13:21:35.604Z,950.26
2022-09-14T13:24:01.948Z,950.17
2022-09-14T13:26:28.262Z,950.16
2022-09-14T13:28:54.590Z,950.15
2022-09-14T13:31:21.025Z,950.05
2022-09-14T13:33:47.271Z,950.13
2022-09-14T13:36:13.615Z,950.10
2022-09-14T13:38:39.962Z,950.11
2022-09-14T13:41:06.295Z,950.15
2022-09-14T13:43:32.641Z,950.19
2022-09-14T13:45:59.044Z,950.16
2022-09-14T13:48:25.285Z,950.18
2022-09-14T13:50:51.609Z,950.17
2022-09-14T13:53:17.949Z,950.14
2022-09-14T13:55:44.251Z,950.12
2022-09-14T13:58:10.567Z,950.16
2022-09-14T14:00:36.894Z,950.06
2022-09-14T14:03:03.258Z,950.03
2022-09-14T14:05:29.561Z,949.95
2022-09-14T14:07:55.900Z,949.95
2022-09-14T14:10:22.240Z,949.95
2022-09-14T14:12:50.789Z,949.94
2022-09-14T14:15:14.922Z,949.81
2022-09-14T14:17:41.258Z,949.90
2022-09-14T14:20:07.591Z,949.81
2022-09-14T14:22:33.924Z,949.81
2022-09-14T14:25:15.495Z,949.80
2022-09-14T14:27:26.594Z,949.82
2022-09-14T14:29:52.976Z,949.74
2022-09-14T14:32:19.355Z,949.75
2022-09-14T14:34:45.673Z,949.77
2022-09-14T14:37:12.011Z,949.71
2022-09-14T14:39:38.369Z,949.74
2022-09-14T14:42:04.690Z,949.76
2022-09-14T14:44:31.014Z,949.73
2022-09-14T14:46:57.377Z,949.68
2022-09-14T14:49:23.692Z,949.66
2022-09-14T14:51:50.036Z,949.58
2022-09-14T14:54:16.344Z,949.62
2022-09-14T14:56:42.689Z,949.70
2022-09-14T14:59:09.032Z,949.64
2022-09-14T15:01:35.360Z,949.63
2022-09-14T15:04:01.747Z,949.58
2022-09-14T15:06:28.055Z,949.57
2022-09-14T15:08:54.408Z,949.59
2022-09-14T15:11:20.725Z,949.54
2022-09-14T15:13:47.072Z,949.55
2022-09-14T15:16:13.432Z,949.54
2022-09-14T15:18:39.781Z,949.51
2022-09-14T15:21:06.120Z,949.49
2022-09-14T15:23:32.470Z,949.45
2022-09-14T15:25:58.846Z,949.40
2022-09-14T15:28:25.190Z,949.38
2022-09-14T15:30:51.510Z,949.43
2022-09-14T15:33:17.861Z,949.37
2022-09-14T15:35:44.194Z,949.39
2022-09-14T15:38:10.510Z,949.44
2022-09-14T15:40:36.920Z,949.37
2022-09-14T15:43:03.184Z,949.34
2022-09-14T15:45:29.573Z,949.35
2022-09-14T15:47:55.876Z,949.26
2022-09-14T15:50:22.215Z,949.35
2022-09-14T15:52:48.563Z,949.28
2022-09-14T15:55:14.940Z,949.19
2022-09-14T15:57:41.283Z,949.22
2022-09-14T16:00:07.629Z,949.15
2022-09-14T16:02:34.053Z,949.24
2022-09-14T16:05:00.345Z,949.19
2022-09-14T16:07:26.678Z,949.24
2022-09-14T16:09:57.130Z,949.25
2022-09-14T16:12:19.348Z,949.21
2022-09-14T16:14:45.686Z,949.25
2022-09-14T16:17:12.028Z,949.21
2022-09-14T16:19:38.382Z,949.23
2022-09-14T16:22:04.739Z,949.19
2022-09-14T16:24:31.101Z,949.20
2022-09-14T16:26:57.435Z,949.15
2022-09-14T16:29:23.762Z,949.19
2022-09-14T16:31:50.137Z,949.23
2022-09-14T16:34:16.495Z,949.28
2022-09-14T16:36:42.887Z,949.20
2022-09-14T16:39:09.262Z,949.21
2022-09-14T16:41:35.653Z,949.24
2022-09-14T16:44:01.982Z,949.24
2022-09-14T16:46:28.336Z,949.30
2022-09-14T16:48:54.747Z,949.34
2022-09-14T16:51:21.094Z,949.32
2022-09-14T16:53:47.489Z,949.30
2022-09-14T16:56:13.834Z,949.32
2022-09-14T16:58:40.151Z,949.28
2022-09-14T17:01:06.537Z,949.32
2022-09-14T17:03:32.840Z,949.34
2022-09-14T17:05:59.200Z,949.34
2022-09-14T17:08:25.538Z,949.38
2022-09-14T17:10:51.946Z,949.37
2022-09-14T17:13:18.253Z,949.36
2022-09-14T17:15:44.583Z,949.36
2022-09-14T17:18:10.922Z,949.39
2022-09-14T17:20:37.288Z,949.34
2022-09-14T17:23:03.627Z,949.44
2022-09-14T17:25:29.997Z,949.46
2022-09-14T17:27:56.373Z,949.47
2022-09-14T17:30:22.696Z,949.51
2022-09-14T17:32:49.040Z,949.49
2022-09-14T17:35:15.368Z,949.55
2022-09-14T17:37:41.719Z,949.54
2022-09-14T17:40:08.123Z,949.49
2022-09-14T17:42:34.408Z,949.50
2022-09-14T17:45:00.743Z,949.60
2022-09-14T17:47:27.070Z,949.54
2022-09-14T17:49:53.396Z,949.57
2022-09-14T17:52:19.756Z,949.64
2022-09-14T17:54:46.099Z,949.59
2022-09-14T17:57:12.435Z,949.57
2022-09-14T17:59:38.768Z,949.58
2022-09-14T18:02:05.099Z,949.57
2022-09-14T18:04:31.445Z,949.60
2022-09-14T18:06:57.798Z,949.58
2022-09-14T18:09:24.165Z,949.66
2022-09-14T18:11:50.495Z,949.73
2022-09-14T18:14:16.817Z,949.75
2022-09-14T18:16:43.209Z,949.82
2022-09-14T18:19:09.481Z,949.88
2022-09-14T18:21:35.821Z,949.83
2022-09-14T18:24:02.152Z,949.81
2022-09-14T18:26:28.493Z,949.81
2022-09-14T18:28:54.823Z,949.83
2022-09-14T18:31:21.200Z,949.85
2022-09-14T18:33:47.485Z,949.87
2022-09-14T18:36:13.804Z,949.87
2022-09-14T18:38:40.173Z,949.90
2022-09-14T18:41:06.521Z,949.91
2022-09-14T18:43:32.877Z,949.92
2022-09-14T18:45:59.220Z,949.87
2022-09-14T18:48:25.564Z,949.85
2022-09-14T18:50:51.946Z,949.83
2022-09-14T18:53:18.310Z,949.72
2022-09-14T18:55:44.651Z,949.75
2022-09-14T18:58:10.989Z,949.80
2022-09-14T19:00:37.367Z,949.80
2022-09-14T19:03:03.637Z,949.88
2022-09-14T19:05:29.976Z,949.94
2022-09-14T19:07:56.321Z,949.95
2022-09-14T19:10:22.643Z,949.98
2022-09-14T19:12:48.990Z,950.12
2022-09-14T19:15:15.395Z,950.33
2022-09-14T19:17:41.738Z,950.29
2022-09-14T19:20:08.073Z,950.32
2022-09-14T19:22:34.401Z,950.37
2022-09-14T19:25:00.739Z,950.41
2022-09-14T19:27:27.061Z,950.34
2022-09-14T19:29:53.497Z,950.26
2022-09-14T19:32:19.816Z,950.30
2022-09-14T19:34:46.187Z,950.35
2022-09-14T19:37:12.533Z,950.32
2022-09-14T19:39:38.886Z,950.43
2022-09-14T19:42:05.238Z,950.49
2022-09-14T19:44:31.557Z,950.52
2022-09-14T19:46:57.897Z,950.52
2022-09-14T19:49:24.248Z,950.46
2022-09-14T19:51:50.595Z,950.45
2022-09-14T19:54:16.956Z,950.51
2022-09-14T19:56:43.296Z,950.50
2022-09-14T19:59:09.635Z,950.53
2022-09-14T20:01:36.097Z,950.52
2022-09-14T20:04:02.323Z,950.54
2022-09-14T20:06:28.674Z,950.60
2022-09-14T20:08:54.998Z,950.65
2022-09-14T20:11:21.330Z,950.72
2022-09-14T20:13:47.670Z,950.84
2022-09-14T20:16:14.042Z,950.84
2022-09-14T20:18:40.319Z,951.00
2022-09-14T20:21:06.706Z,950.95
2022-09-14T20:23:33.086Z,951.03
2022-09-14T20:25:59.416Z,950.96
2022-09-14T20:28:25.753Z,950.97
2022-09-14T20:30:52.116Z,950.88
2022-09-14T20:33:18.423Z,950.94
2022-09-14T20:35:44.781Z,950.87
2022-09-14T20:38:11.104Z,950.89
2022-09-14T20:40:37.479Z,950.78
2022-09-14T20:43:03.788Z,950.82
2022-09-14T20:45:30.144Z,950.82
2022-09-14T20:47:56.495Z,950.71
2022-09-14T20:50:22.862Z,950.76
2022-09-14T20:52:49.181Z,950.77
2022-09-14T20:55:15.503Z,950.82
2022-09-14T20:57:41.872Z,950.84
2022-09-14T21:00:08.202Z,950.77
2022-09-14T21:02:34.571Z,950.76
2022-09-14T21:05:00.874Z,950.59
2022-09-14T21:07:27.199Z,950.55
2022-09-14T21:09:53.532Z,950.54
2022-09-14T21:12:19.854Z,950.56
2022-09-14T21:14:46.184Z,950.61
2022-09-14T21:17:12.533Z,950.61
2022-09-14T21:19:38.860Z,950.64
2022-09-14T21:22:05.203Z,950.65
2022-09-14T21:24:31.553Z,950.70
2022-09-14T21:26:57.893Z,950.78
2022-09-14T21:29:24.261Z,950.69
2022-09-14T21:31:50.582Z,950.64
2022-09-14T21:34:16.933Z,950.55
2022-09-14T21:36:43.270Z,950.39
2022-09-14T21:39:09.644Z,950.44
2022-09-14T21:41:35.976Z,950.48
2022-09-14T21:44:02.309Z,950.54
2022-09-14T21:46:28.711Z,950.53
2022-09-14T21:48:55.007Z,950.43
2022-09-14T21:51:21.338Z,950.48
2022-09-14T21:53:47.664Z,950.56
2022-09-14T21:56:14.007Z,950.46
2022-09-14T21:58:40.335Z,950.49
2022-09-14T22:01:06.713Z,950.55
2022-09-14T22:03:33.001Z,950.55
2022-09-14T22:05:59.321Z,950.52
2022-09-14T22:08:25.669Z,950.61
2022-09-14T22:10:52.006Z,950.55
2022-09-14T22:13:18.352Z,950.54
2022-09-14T22:15:44.700Z,950.62
2022-09-14T22:18:11.006Z,950.56
2022-09-14T22:20:37.324Z,950.56
2022-09-14T22:23:03.651Z,950.61
2022-09-14T22:25:29.993Z,950.53
2022-09-14T22:27:56.339Z,950.66
2022-09-14T22:30:22.681Z,950.75
2022-09-14T22:32:49.023Z,950.71
2022-09-14T22:35:15.378Z,950.72
2022-09-14T22:37:41.709Z,950.80
2022-09-14T22:40:08.099Z,951.00
2022-09-14T22:42:34.417Z,950.97
2022-09-14T22:45:00.731Z,951.01
2022-09-14T22:47:27.057Z,950.99
2022-09-14T22:49:53.378Z,950.94
2022-09-14T22:52:19.710Z,950.88
2022-09-14T22:54:46.030Z,950.89
2022-09-14T22:57:12.391Z,950.83
2022-09-14T22:59:38.734Z,950.92
2022-09-14T23:02:05.107Z,950.89
2022-09-14T23:04:31.397Z,950.84
2022-09-14T23:06:57.737Z,950.82
2022-09-14T23:09:24.083Z,950.87
2022-09-14T23:11:50.454Z,950.95
2022-09-14T23:14:16.793Z,950.86
2022-09-14T23:16:43.152Z,950.75
2022-09-14T23:19:09.479Z,950.79
2022-09-14T23:21:35.825Z,950.76
2022-09-14T23:24:02.157Z,950.67
2022-09-14T23:26:28.499Z,950.72
2022-09-14T23:28:54.814Z,950.68
2022-09-14T23:31:21.212Z,950.69
2022-09-14T23:33:47.497Z,950.76
2022-09-14T23:36:13.864Z,950.77
2022-09-14T23:38:40.184Z,950.76
2022-09-14T23:41:06.528Z,950.68
2022-09-14T23:43:32.880Z,950.71
2022-09-14T23:45:59.231Z,950.70
2022-09-14T23:48:25.525Z,950.66
2022-09-14T23:50:51.885Z,950.63
2022-09-14T23:53:18.210Z,950.63
2022-09-14T23:55:44.545Z,950.60
2022-09-14T23:58:10.864Z,950.69
